createdAt,value
2018-09-25T00:01:44.836Z,-75
2018-09-25T00:04:18.355Z,-75
2018-09-25T00:06:51.955Z,-77
2018-09-25T00:09:25.900Z,-75
2018-09-25T00:11:59.540Z,-75
2018-09-25T00:14:33.303Z,-75
2018-09-25T00:17:07.076Z,-75
2018-09-25T00:19:40.723Z,-76
2018-09-25T00:22:14.410Z,-74
2018-09-25T00:24:48.189Z,-75
2018-09-25T00:27:22.004Z,-75
2018-09-25T00:29:55.635Z,-75
2018-09-25T00:32:29.483Z,-75
2018-09-25T00:35:03.165Z,-75
2018-09-25T00:37:36.727Z,-75
2018-09-25T00:40:10.147Z,-76
2018-09-25T00:42:43.801Z,-76
2018-09-25T00:45:17.426Z,-75
2018-09-25T00:47:51.104Z,-76
2018-09-25T00:50:24.679Z,-75
2018-09-25T00:52:58.371Z,-75
2018-09-25T00:55:32.108Z,-75
2018-09-25T00:58:05.914Z,-75
2018-09-25T01:00:39.571Z,-75
2018-09-25T01:03:13.342Z,-76
2018-09-25T01:05:46.861Z,-76
2018-09-25T01:08:20.312Z,-75
2018-09-25T01:10:53.788Z,-75
2018-09-25T01:13:27.503Z,-75
2018-09-25T01:16:01.262Z,-75
2018-09-25T01:18:34.936Z,-75
2018-09-25T01:21:08.505Z,-75
2018-09-25T01:23:42.151Z,-75
2018-09-25T01:26:15.836Z,-75
2018-09-25T01:28:49.452Z,-75
2018-09-25T01:31:23.014Z,-75
2018-09-25T01:33:56.682Z,-75
2018-09-25T01:36:30.353Z,-75
2018-09-25T01:39:03.918Z,-75
2018-09-25T01:41:37.421Z,-75
2018-09-25T01:44:10.883Z,-75
2018-09-25T01:46:44.521Z,-75
2018-09-25T01:49:18.369Z,-74
2018-09-25T01:51:51.919Z,-75
2018-09-25T01:54:25.535Z,-75
2018-09-25T01:56:59.186Z,-75
2018-09-25T01:59:32.653Z,-75
2018-09-25T02:02:06.433Z,-75
2018-09-25T02:04:40.008Z,-75
2018-09-25T02:07:13.606Z,-76
2018-09-25T02:09:47.071Z,-75
2018-09-25T02:12:20.699Z,-75
2018-09-25T02:14:54.347Z,-75
2018-09-25T02:17:28.015Z,-75
2018-09-25T02:20:01.734Z,-75
2018-09-25T02:22:35.636Z,-75
2018-09-25T02:25:09.657Z,-75
2018-09-25T02:27:43.485Z,-75
2018-09-25T02:30:16.938Z,-75
2018-09-25T02:32:50.653Z,-75
2018-09-25T02:35:24.453Z,-75
2018-09-25T02:37:58.048Z,-75
2018-09-25T02:40:31.656Z,-75
2018-09-25T02:43:05.410Z,-75
2018-09-25T02:45:39.296Z,-75
2018-09-25T02:48:12.857Z,-77
2018-09-25T02:50:46.661Z,-75
2018-09-25T02:53:20.507Z,-75
2018-09-25T02:55:54.362Z,-75
2018-09-25T02:58:28.096Z,-76
2018-09-25T03:01:01.765Z,-75
2018-09-25T03:03:35.308Z,-77
2018-09-25T03:06:09.013Z,-75
2018-09-25T03:08:42.611Z,-75
2018-09-25T03:11:16.228Z,-75
2018-09-25T03:13:49.767Z,-75
2018-09-25T03:16:23.468Z,-75
2018-09-25T03:18:57.356Z,-75
2018-09-25T03:21:31.125Z,-75
2018-09-25T03:24:04.809Z,-75
2018-09-25T03:26:38.496Z,-75
2018-09-25T03:29:12.592Z,-76
2018-09-25T03:31:46.462Z,-75
2018-09-25T03:34:20.152Z,-77
2018-09-25T03:36:53.568Z,-75
2018-09-25T03:39:27.390Z,-75
2018-09-25T03:42:01.117Z,-75
2018-09-25T03:44:34.797Z,-75
2018-09-25T03:47:08.611Z,-75
2018-09-25T03:49:42.416Z,-75
2018-09-25T03:52:15.978Z,-75
2018-09-25T03:54:49.766Z,-75
2018-09-25T03:57:23.512Z,-75
2018-09-25T03:59:58.041Z,-75
2018-09-25T04:02:31.829Z,-75
2018-09-25T04:05:05.473Z,-77
2018-09-25T04:07:39.339Z,-75
2018-09-25T04:10:13.230Z,-75
2018-09-25T04:12:46.924Z,-75
2018-09-25T04:15:20.482Z,-76
2018-09-25T04:17:54.214Z,-75
2018-09-25T04:20:27.921Z,-75
2018-09-25T04:23:02.147Z,-75
2018-09-25T04:25:35.913Z,-75
2018-09-25T04:28:09.792Z,-75
2018-09-25T04:30:43.407Z,-75
2018-09-25T04:33:17.238Z,-75
2018-09-25T04:35:50.909Z,-75
2018-09-25T04:38:24.722Z,-75
2018-09-25T04:40:58.510Z,-75
2018-09-25T04:43:32.253Z,-75
2018-09-25T04:46:05.939Z,-75
2018-09-25T04:48:39.585Z,-76
2018-09-25T04:51:13.301Z,-75
2018-09-25T04:53:46.991Z,-75
2018-09-25T04:56:20.713Z,-75
2018-09-25T04:58:54.358Z,-76
2018-09-25T05:01:28.230Z,-75
2018-09-25T05:04:01.880Z,-75
2018-09-25T05:06:35.759Z,-75
2018-09-25T05:09:11.587Z,-75
2018-09-25T05:11:45.294Z,-75
2018-09-25T05:14:18.887Z,-75
2018-09-25T05:16:52.781Z,-75
2018-09-25T05:19:26.412Z,-75
2018-09-25T05:22:00.246Z,-75
2018-09-25T05:24:34.053Z,-75
2018-09-25T05:27:07.917Z,-75
2018-09-25T05:29:41.593Z,-75
2018-09-25T05:32:15.164Z,-75
2018-09-25T05:34:48.977Z,-75
2018-09-25T05:37:22.793Z,-75
2018-09-25T05:39:56.338Z,-76
2018-09-25T05:42:30.051Z,-75
2018-09-25T05:45:03.876Z,-75
2018-09-25T05:47:47.595Z,-75
2018-09-25T05:50:21.471Z,-76
2018-09-25T05:52:55.049Z,-75
2018-09-25T05:55:28.889Z,-75
2018-09-25T05:58:02.703Z,-75
2018-09-25T06:00:36.364Z,-75
2018-09-25T06:03:10.075Z,-75
2018-09-25T06:05:43.639Z,-75
2018-09-25T06:08:17.551Z,-75
2018-09-25T06:10:51.217Z,-75
2018-09-25T06:13:24.892Z,-75
2018-09-25T06:15:58.404Z,-75
2018-09-25T06:18:32.045Z,-75
2018-09-25T06:21:05.695Z,-76
2018-09-25T06:23:39.223Z,-77
2018-09-25T06:26:13.056Z,-75
2018-09-25T06:28:46.835Z,-75
2018-09-25T06:31:20.599Z,-75
2018-09-25T06:33:54.291Z,-75
2018-09-25T06:36:28.123Z,-75
2018-09-25T06:39:01.780Z,-76
2018-09-25T06:41:35.739Z,-76
2018-09-25T06:44:09.278Z,-75
2018-09-25T06:46:42.916Z,-75
2018-09-25T06:49:16.636Z,-77
2018-09-25T06:51:50.312Z,-75
2018-09-25T06:54:24.035Z,-76
2018-09-25T06:56:57.921Z,-76
2018-09-25T06:59:31.785Z,-75
2018-09-25T07:02:05.307Z,-76
2018-09-25T07:04:38.947Z,-75
2018-09-25T07:07:12.575Z,-75
2018-09-25T07:09:46.361Z,-75
2018-09-25T07:12:19.922Z,-75
2018-09-25T07:14:53.800Z,-75
2018-09-25T07:17:27.313Z,-76
2018-09-25T07:20:00.900Z,-75
2018-09-25T07:22:34.578Z,-75
2018-09-25T07:25:08.421Z,-76
2018-09-25T07:27:42.116Z,-75
2018-09-25T07:30:15.879Z,-75
2018-09-25T07:32:49.551Z,-75
2018-09-25T07:35:23.375Z,-75
2018-09-25T07:37:56.916Z,-75
2018-09-25T07:40:30.646Z,-76
2018-09-25T07:43:04.274Z,-79
2018-09-25T07:45:37.852Z,-75
2018-09-25T07:48:11.278Z,-75
2018-09-25T07:50:44.967Z,-76
2018-09-25T07:53:18.625Z,-75
2018-09-25T07:55:52.312Z,-75
2018-09-25T07:58:26.135Z,-75
2018-09-25T08:00:59.771Z,-76
2018-09-25T08:03:33.372Z,-76
2018-09-25T08:06:07.047Z,-77
2018-09-25T08:08:40.694Z,-76
2018-09-25T08:11:14.764Z,-75
2018-09-25T08:13:48.585Z,-76
2018-09-25T08:16:22.038Z,-76
2018-09-25T08:18:55.710Z,-76
2018-09-25T08:21:29.335Z,-76
2018-09-25T08:24:03.111Z,-75
2018-09-25T08:26:36.787Z,-76
2018-09-25T08:29:10.563Z,-80
2018-09-25T08:31:44.235Z,-81
2018-09-25T08:34:17.666Z,-81
2018-09-25T08:36:51.290Z,-81
2018-09-25T08:39:24.829Z,-81
2018-09-25T08:41:58.565Z,-81
2018-09-25T08:44:32.067Z,-82
2018-09-25T08:47:05.676Z,-82
2018-09-25T08:49:39.161Z,-81
2018-09-25T08:52:12.808Z,-81
2018-09-25T08:54:46.347Z,-81
2018-09-25T08:57:20.183Z,-81
2018-09-25T08:59:53.773Z,-81
2018-09-25T09:02:27.386Z,-81
2018-09-25T09:05:01.015Z,-83
2018-09-25T09:07:34.723Z,-81
2018-09-25T09:10:08.322Z,-81
2018-09-25T09:12:41.985Z,-81
2018-09-25T09:15:15.633Z,-81
2018-09-25T09:17:49.459Z,-81
2018-09-25T09:20:23.176Z,-81
2018-09-25T09:22:56.771Z,-82
2018-09-25T09:25:30.467Z,-81
2018-09-25T09:28:04.247Z,-82
2018-09-25T09:30:37.984Z,-81
2018-09-25T09:33:11.575Z,-81
2018-09-25T09:35:45.150Z,-82
2018-09-25T09:38:18.822Z,-81
2018-09-25T09:40:52.359Z,-80
2018-09-25T09:43:25.772Z,-80
2018-09-25T09:45:59.481Z,-80
2018-09-25T09:48:33.227Z,-80
2018-09-25T09:51:06.877Z,-81
2018-09-25T09:53:40.576Z,-80
2018-09-25T09:56:14.440Z,-80
2018-09-25T09:58:48.070Z,-81
2018-09-25T10:01:21.706Z,-80
2018-09-25T10:03:55.513Z,-81
2018-09-25T10:06:29.231Z,-81
2018-09-25T10:09:02.989Z,-81
2018-09-25T10:11:36.638Z,-81
2018-09-25T10:14:10.179Z,-80
2018-09-25T10:16:43.817Z,-80
2018-09-25T10:19:17.466Z,-80
2018-09-25T10:21:51.027Z,-80
2018-09-25T10:24:24.718Z,-80
2018-09-25T10:26:58.317Z,-80
2018-09-25T10:29:31.974Z,-80
2018-09-25T10:32:05.429Z,-79
2018-09-25T10:34:39.263Z,-80
2018-09-25T10:37:12.902Z,-80
2018-09-25T10:39:46.423Z,-80
2018-09-25T10:42:19.896Z,-80
2018-09-25T10:44:53.339Z,-80
2018-09-25T10:47:26.958Z,-80
2018-09-25T10:50:00.621Z,-80
2018-09-25T10:52:34.416Z,-80
2018-09-25T10:55:08.209Z,-80
2018-09-25T10:57:41.839Z,-80
2018-09-25T11:00:15.562Z,-80
2018-09-25T11:02:49.313Z,-80
2018-09-25T11:05:22.938Z,-80
2018-09-25T11:07:56.662Z,-80
2018-09-25T11:10:30.330Z,-80
2018-09-25T11:13:04.037Z,-80
2018-09-25T11:15:37.711Z,-80
2018-09-25T11:18:11.340Z,-80
2018-09-25T11:20:44.922Z,-79
2018-09-25T11:23:18.771Z,-78
2018-09-25T11:25:52.488Z,-78
2018-09-25T11:28:26.318Z,-78
2018-09-25T11:31:00.062Z,-80
2018-09-25T11:33:33.537Z,-78
2018-09-25T11:36:07.398Z,-79
2018-09-25T11:38:41.163Z,-79
2018-09-25T11:41:15.056Z,-79
2018-09-25T11:43:48.815Z,-78
2018-09-25T11:46:22.440Z,-79
2018-09-25T11:48:55.999Z,-79
2018-09-25T11:51:29.678Z,-79
2018-09-25T11:54:03.266Z,-79
2018-09-25T11:56:36.966Z,-79
2018-09-25T11:59:10.684Z,-79
2018-09-25T12:01:44.386Z,-79
2018-09-25T12:04:18.191Z,-80
2018-09-25T12:06:51.592Z,-79
2018-09-25T12:09:25.469Z,-79
2018-09-25T12:11:59.167Z,-79
2018-09-25T12:14:33.031Z,-79
2018-09-25T12:17:06.674Z,-79
2018-09-25T12:19:40.528Z,-79
2018-09-25T12:22:14.237Z,-80
2018-09-25T12:24:48.072Z,-79
2018-09-25T12:27:21.716Z,-79
2018-09-25T12:29:55.236Z,-79
2018-09-25T12:32:28.919Z,-80
2018-09-25T12:35:02.743Z,-79
2018-09-25T12:37:36.308Z,-80
2018-09-25T12:40:09.782Z,-79
2018-09-25T12:42:43.659Z,-80
2018-09-25T12:45:17.236Z,-79
2018-09-25T12:47:50.979Z,-79
2018-09-25T12:50:24.651Z,-79
2018-09-25T12:52:58.264Z,-79
2018-09-25T12:55:32.062Z,-81
2018-09-25T12:58:05.862Z,-79
2018-09-25T13:00:39.491Z,-79
2018-09-25T13:03:13.322Z,-79
2018-09-25T13:05:47.085Z,-79
2018-09-25T13:08:20.739Z,-79
2018-09-25T13:10:54.506Z,-79
2018-09-25T13:13:28.086Z,-78
2018-09-25T13:16:01.847Z,-78
2018-09-25T13:18:35.651Z,-78
2018-09-25T13:21:09.314Z,-79
2018-09-25T13:23:43.178Z,-78
2018-09-25T13:26:16.900Z,-78
2018-09-25T13:28:50.687Z,-78
2018-09-25T13:31:24.412Z,-78
2018-09-25T13:33:58.146Z,-78
2018-09-25T13:36:31.672Z,-78
2018-09-25T13:39:05.300Z,-79
2018-09-25T13:41:39.165Z,-79
2018-09-25T13:44:13.082Z,-79
2018-09-25T13:46:46.724Z,-78
2018-09-25T13:49:20.211Z,-78
2018-09-25T13:51:53.905Z,-78
2018-09-25T13:54:27.625Z,-78
2018-09-25T13:57:01.296Z,-78
2018-09-25T13:59:34.794Z,-81
2018-09-25T14:02:08.490Z,-78
2018-09-25T14:04:42.170Z,-78
2018-09-25T14:07:15.842Z,-78
2018-09-25T14:09:49.612Z,-78
2018-09-25T14:12:23.335Z,-78
2018-09-25T14:14:57.148Z,-78
2018-09-25T14:17:30.904Z,-78
2018-09-25T14:20:04.699Z,-78
2018-09-25T14:22:38.394Z,-78
2018-09-25T14:25:12.050Z,-78
2018-09-25T14:27:45.905Z,-78
2018-09-25T14:30:19.716Z,-78
2018-09-25T14:32:53.180Z,-78
2018-09-25T14:35:26.839Z,-78
2018-09-25T14:38:00.823Z,-78
2018-09-25T14:40:34.405Z,-78
2018-09-25T14:43:07.959Z,-78
2018-09-25T14:45:41.820Z,-78
2018-09-25T14:48:15.520Z,-77
2018-09-25T14:50:49.118Z,-78
2018-09-25T14:53:22.969Z,-78
2018-09-25T14:55:56.658Z,-78
2018-09-25T14:58:30.500Z,-78
2018-09-25T15:01:04.277Z,-78
2018-09-25T15:03:37.819Z,-78
2018-09-25T15:06:11.847Z,-79
2018-09-25T15:08:45.733Z,-79
2018-09-25T15:11:19.338Z,-78
2018-09-25T15:13:53.005Z,-79
2018-09-25T15:16:26.699Z,-78
2018-09-25T15:19:00.247Z,-78
2018-09-25T15:21:41.014Z,-78
2018-09-25T15:24:14.624Z,-80
2018-09-25T15:26:48.205Z,-80
2018-09-25T15:29:21.932Z,-79
2018-09-25T15:31:55.504Z,-79
2018-09-25T15:34:29.118Z,-80
2018-09-25T15:37:02.771Z,-79
2018-09-25T15:39:36.505Z,-78
2018-09-25T15:42:15.985Z,-78
2018-09-25T15:44:49.477Z,-79
2018-09-25T15:47:23.099Z,-79
2018-09-25T15:49:57.840Z,-86
2018-09-25T15:52:31.734Z,-81
2018-09-25T15:55:05.375Z,-81
2018-09-25T15:57:39.203Z,-80
2018-09-25T16:00:13.251Z,-79
2018-09-25T16:02:47.010Z,-80
2018-09-25T16:05:20.627Z,-80
2018-09-25T16:07:54.030Z,-79
2018-09-25T16:10:27.917Z,-80
2018-09-25T16:13:01.532Z,-80
2018-09-25T16:15:35.170Z,-80
2018-09-25T16:18:08.926Z,-83
2018-09-25T16:20:42.699Z,-80
2018-09-25T16:23:16.155Z,-80
2018-09-25T16:25:49.763Z,-80
2018-09-25T16:28:23.415Z,-80
2018-09-25T16:30:56.992Z,-80
2018-09-25T16:33:30.507Z,-79
2018-09-25T16:36:04.194Z,-80
2018-09-25T16:38:38.876Z,-80
2018-09-25T16:41:12.716Z,-81
2018-09-25T16:43:46.296Z,-81
2018-09-25T16:46:19.938Z,-79
2018-09-25T16:48:53.600Z,-80
2018-09-25T16:51:27.261Z,-80
2018-09-25T16:54:00.857Z,-78
2018-09-25T16:56:34.495Z,-78
2018-09-25T16:59:08.033Z,-80
2018-09-25T17:01:41.655Z,-78
2018-09-25T17:04:16.198Z,-79
2018-09-25T17:06:49.950Z,-78
2018-09-25T17:09:23.634Z,-78
2018-09-25T17:11:57.289Z,-79
2018-09-25T17:14:30.972Z,-79
2018-09-25T17:17:04.806Z,-79
2018-09-25T17:19:38.420Z,-79
2018-09-25T17:22:12.335Z,-78
2018-09-25T17:24:46.015Z,-78
2018-09-25T17:27:19.887Z,-78
2018-09-25T17:29:53.723Z,-79
2018-09-25T17:32:35.446Z,-80
2018-09-25T17:35:09.124Z,-79
2018-09-25T17:37:42.822Z,-79
2018-09-25T17:40:22.832Z,-78
2018-09-25T17:42:56.632Z,-78
2018-09-25T17:45:30.277Z,-79
2018-09-25T17:48:03.961Z,-80
2018-09-25T17:50:37.658Z,-79
2018-09-25T17:53:11.418Z,-79
2018-09-25T17:55:44.995Z,-82
2018-09-25T17:58:18.663Z,-79
2018-09-25T18:00:52.630Z,-79
2018-09-25T18:03:26.326Z,-78
2018-09-25T18:05:59.837Z,-78
2018-09-25T18:08:33.656Z,-78
2018-09-25T18:11:07.285Z,-79
2018-09-25T18:13:41.090Z,-79
2018-09-25T18:16:14.715Z,-79
2018-09-25T18:18:48.251Z,-78
2018-09-25T18:21:21.983Z,-78
2018-09-25T18:23:55.679Z,-79
2018-09-25T18:26:29.125Z,-78
2018-09-25T18:29:02.655Z,-79
2018-09-25T18:31:36.519Z,-78
2018-09-25T18:34:10.255Z,-78
2018-09-25T18:36:43.916Z,-79
2018-09-25T18:39:17.587Z,-79
2018-09-25T18:41:51.427Z,-79
2018-09-25T18:44:25.098Z,-79
2018-09-25T18:46:58.664Z,-79
2018-09-25T18:49:32.363Z,-79
2018-09-25T18:52:06.015Z,-78
2018-09-25T18:54:39.693Z,-79
2018-09-25T18:57:13.459Z,-80
2018-09-25T18:59:47.017Z,-80
2018-09-25T19:02:20.756Z,-80
2018-09-25T19:04:54.390Z,-80
2018-09-25T19:07:27.986Z,-80
2018-09-25T19:10:01.727Z,-80
2018-09-25T19:12:35.430Z,-80
2018-09-25T19:15:09.212Z,-80
2018-09-25T19:17:42.852Z,-80
2018-09-25T19:20:16.663Z,-80
2018-09-25T19:22:50.362Z,-80
2018-09-25T19:25:23.999Z,-80
2018-09-25T19:27:57.753Z,-80
2018-09-25T19:30:31.201Z,-80
2018-09-25T19:33:04.961Z,-80
2018-09-25T19:35:38.855Z,-80
2018-09-25T19:38:12.325Z,-80
2018-09-25T19:40:46.122Z,-80
2018-09-25T19:43:19.755Z,-80
2018-09-25T19:45:53.487Z,-80
2018-09-25T19:48:27.295Z,-80
2018-09-25T19:51:01.091Z,-80
2018-09-25T19:53:34.951Z,-80
2018-09-25T19:56:08.647Z,-80
2018-09-25T19:58:42.504Z,-80
2018-09-25T20:01:16.163Z,-80
2018-09-25T20:03:49.693Z,-80
2018-09-25T20:06:23.473Z,-80
2018-09-25T20:08:57.206Z,-80
2018-09-25T20:11:30.853Z,-80
2018-09-25T20:14:04.336Z,-80
2018-09-25T20:16:38.023Z,-80
2018-09-25T20:19:11.673Z,-80
2018-09-25T20:21:45.491Z,-80
2018-09-25T20:24:19.325Z,-80
2018-09-25T20:26:53.076Z,-80
2018-09-25T20:29:26.907Z,-82
2018-09-25T20:32:00.642Z,-82
2018-09-25T20:34:34.319Z,-82
2018-09-25T20:37:07.699Z,-83
2018-09-25T20:39:41.487Z,-82
2018-09-25T20:42:15.171Z,-82
2018-09-25T20:44:48.784Z,-86
2018-09-25T20:47:22.482Z,-82
2018-09-25T20:49:56.176Z,-82
2018-09-25T20:52:36.431Z,-80
2018-09-25T20:55:10.092Z,-80
2018-09-25T20:57:43.730Z,-80
2018-09-25T21:00:17.304Z,-81
2018-09-25T21:02:50.770Z,-81
2018-09-25T21:05:24.486Z,-80
2018-09-25T21:07:58.254Z,-80
2018-09-25T21:10:31.633Z,-80
2018-09-25T21:13:05.356Z,-80
2018-09-25T21:15:38.983Z,-80
2018-09-25T21:18:12.592Z,-80
2018-09-25T21:20:46.289Z,-80
2018-09-25T21:23:20.085Z,-81
2018-09-25T21:25:54.000Z,-80
2018-09-25T21:28:27.929Z,-80
2018-09-25T21:31:02.294Z,-80
2018-09-25T21:33:36.332Z,-80
2018-09-25T21:36:10.273Z,-81
2018-09-25T21:38:44.246Z,-81
2018-09-25T21:41:19.727Z,-80
2018-09-25T21:43:53.559Z,-80
2018-09-25T21:46:27.190Z,-80
2018-09-25T21:49:01.042Z,-81
2018-09-25T21:51:35.009Z,-80
2018-09-25T21:54:08.750Z,-80
2018-09-25T21:56:42.590Z,-80
2018-09-25T21:59:16.400Z,-80
2018-09-25T22:01:50.003Z,-80
2018-09-25T22:04:24.430Z,-81
2018-09-25T22:06:58.143Z,-80
2018-09-25T22:09:31.724Z,-80
2018-09-25T22:12:05.397Z,-81
2018-09-25T22:14:39.031Z,-80
2018-09-25T22:17:12.571Z,-82
2018-09-25T22:19:46.410Z,-81
2018-09-25T22:22:20.030Z,-81
2018-09-25T22:24:53.820Z,-80
2018-09-25T22:27:27.507Z,-81
2018-09-25T22:30:01.106Z,-80
2018-09-25T22:32:34.752Z,-80
2018-09-25T22:35:08.565Z,-81
2018-09-25T22:37:41.994Z,-81
2018-09-25T22:40:15.518Z,-81
2018-09-25T22:42:49.171Z,-80
2018-09-25T22:45:22.745Z,-81
2018-09-25T22:47:56.431Z,-80
2018-09-25T22:50:31.013Z,-80
2018-09-25T22:53:05.353Z,-80
2018-09-25T22:55:39.169Z,-80
2018-09-25T22:58:12.944Z,-80
2018-09-25T23:00:46.815Z,-80
2018-09-25T23:03:20.256Z,-80
2018-09-25T23:05:53.734Z,-80
2018-09-25T23:08:27.548Z,-80
2018-09-25T23:11:01.314Z,-80
2018-09-25T23:13:35.115Z,-80
2018-09-25T23:16:08.789Z,-80
2018-09-25T23:18:42.607Z,-80
2018-09-25T23:21:16.340Z,-80
2018-09-25T23:23:50.205Z,-80
2018-09-25T23:26:24.028Z,-80
2018-09-25T23:28:57.505Z,-81
2018-09-25T23:31:30.975Z,-80
2018-09-25T23:34:04.683Z,-80
2018-09-25T23:36:38.347Z,-80
2018-09-25T23:39:10.861Z,-80
2018-09-25T23:41:44.547Z,-80
2018-09-25T23:44:16.989Z,-80
2018-09-25T23:46:49.779Z,-80
2018-09-25T23:49:22.214Z,-80
2018-09-25T23:52:00.236Z,-80
2018-09-25T23:54:36.919Z,-80
2018-09-25T23:57:08.219Z,-80
